Terminal Aerodrome Forecast
Issued by NWS

Home | Current Version | Previous Version | Text Only | Print | Product List | Glossary On
Versions: 1 2 3 4 5 6 7 8 9 10 11 12 13 14 15 16 17 18 19 20 21 22 23 24 25 26 27 28 29 30 31 32
000
FTPA31 PHFO 281100
TAFLIH
TAF
PHLI 281120Z 2812/2912 02008KT P6SM VCSH SCT030 BKN050
      TEMPO 2812/2816 -SHRA BKN025
     FM281900 04012KT P6SM SCT025 BKN050
     FM290500 35008KT P6SM VCSH SCT030 BKN050=

USA.gov is the U.S. government's official web portal to all federal, state and local government web resources and services.